TAF SUMU
SUMU 090530Z 0906/1006 06012KT CAVOK TX26/0918Z TN16/0909Z TEMPO 0918/0921 12015G25KT=
METAR SUMU
WC SUMU
WS SUMU
WV SUMU